Flugplatz Nordhorn-Lingen

EDWN · 下萨克森, 德国

使用的METAR站距离机场31 km。
罗盘
风向 的 风向 010° Flugplatz Nordhorn-Lingen 5/23
风: 7 kt, 3 beaufort

5 kt

5 kt
改变
0 ft 1.000 2.000 3.000 4.000 5.000
N/A
METAR ETWM 262120Z AUTO 01007KT //// // ////// 03/02 Q1014 ///

METAR Flugplatz Nordhorn-Lingen - EDWN

Flugplatz Nordhorn-Lingen是,德国中的小机场。 该机场位于纬度52,45752和经度7,18277。 该机场有一条跑道: 5/23. 本场的ICAO机场代码为EDWN。 机场在Bremen FIR中。

该航空气象观测是针对Meppen Air Base在2024年2月26日 22:20, 当地时间进行的。

机场观察

风向为010°,速度为7 kt。

温度为3 °C,阵风为-2 °C。 露点为2 °C,相对湿度为93%。 海平面上的气压为1014 hPa (QNH)。

白天

今天,太阳从07:24升起,在18:03降落。 这适用于Flugplatz Nordhorn-Lingen,世界夏令时可能有所不同。 当地时间与世界标准时间之间的时差为+1 小时。 当前,没有夏令时有效。

公司介绍

在这个机场,你可以找到飞行学校。 本场上唯一已知的公司是Vereinigung Aktiver Piloten e.V.。

体会

到Vliegles.nl去找飞行课程,跳伞和其他飞行体验。 浏览页面,了解Flugplatz Nordhorn-Lingen附近所有可用的活动。 你也可以使用搜索功能来寻找你所在地附近的特定飞行课程、跳伞或其他飞行体验。

跑道

Id 标题 侧风 逆风 侧风 %
5/23 055°-235° 5 kt 5 kt 71 %

逆风成分最大的方向会被突出显示,并用于横风计算。 这并不一定意味着这个方向在使用。

乌云

0 ft

温度 & 天气

温度 3 °C
露点 2 °C
相对湿度 93%
风寒 -2 °C
Kp-index 0 (0-9)

白天

日出
07:24 (8:13)
中午
12:43
日落
18:02

小工具

你想在你的网站上有一个关于Flugplatz Nordhorn-Lingen的当前航空天气(METAR)的小部件吗?

显示HTML代码
?>